Time;durP1;ratioP1;P1;durP2;ratioP2;P2;SDS_P1;SDS_P2;PMS_P1;PMS_P2;Temp;Humidity;BMP_temperature;BMP_pressure;BME280_temperature;BME280_humidity;BME280_pressure;Samples;Min_cycle;Max_cycle;Signal;HPM_P1;HPM_P2
2022/08/11 00:01:25;;;;;;;;;10.75;10.00;;;;;28.94;25.01;101118.47;5070700;27;45651;-75
2022/08/11 00:03:57;;;;;;;;;11.50;11.00;;;;;28.92;25.35;101120.59;5068745;28;46394;-75
2022/08/11 00:06:32;;;;;;;;;11.25;10.50;;;;;28.87;25.55;101124.97;5065398;28;45790;-75
2022/08/11 00:08:59;;;;;;;;;12.00;11.00;;;;;28.83;25.33;101116.47;5067990;28;45910;-76
2022/08/11 00:11:35;;;;;;;;;11.50;10.25;;;;;28.80;25.08;101119.59;5071103;28;45768;-75
2022/08/11 00:14:02;;;;;;;;;11.00;10.75;;;;;28.74;25.51;101120.47;5068826;28;47406;-75
2022/08/11 00:16:28;;;;;;;;;10.00;9.75;;;;;28.73;25.77;101119.63;5077924;27;46301;-75
2022/08/11 00:18:55;;;;;;;;;11.00;10.00;;;;;28.72;25.53;101125.22;5070027;28;45770;-75
2022/08/11 00:21:24;;;;;;;;;10.00;10.00;;;;;28.68;25.10;101114.03;5070350;27;46809;-75
2022/08/11 00:23:58;;;;;;;;;11.00;10.00;;;;;28.65;25.64;101113.66;5070515;27;45981;-75
2022/08/11 00:26:26;;;;;;;;;11.00;9.00;;;;;28.63;25.67;101119.25;5069471;28;45776;-75
2022/08/11 00:28:53;;;;;;;;;11.50;9.50;;;;;28.61;25.93;101123.22;5074139;27;45677;-75
2022/08/11 00:31:31;;;;;;;;;10.75;10.00;;;;;28.58;26.04;101116.38;5089481;27;47400;-75
2022/08/11 00:33:59;;;;;;;;;11.00;10.75;;;;;28.55;25.52;101116.81;5065744;28;46627;-75
2022/08/11 00:36:38;;;;;;;;;9.00;9.00;;;;;28.53;25.29;101116.19;5067841;28;45762;-75
2022/08/11 00:39:05;;;;;;;;;10.00;10.00;;;;;28.51;25.88;101120.94;5072753;28;45805;-74
2022/08/11 00:41:57;;;;;;;;;11.50;10.50;;;;;28.46;26.07;101120.78;5071133;28;47003;-76
2022/08/11 00:44:47;;;;;;;;;9.50;9.50;;;;;28.47;25.81;101121.59;5073405;27;45891;-75
2022/08/11 00:47:15;;;;;;;;;9.75;9.00;;;;;28.45;25.57;101124.50;5071069;27;45731;-75
2022/08/11 00:49:59;;;;;;;;;11.75;8.00;;;;;28.42;25.82;101130.34;5073207;28;45991;-75
2022/08/11 00:52:48;;;;;;;;;9.00;9.00;;;;;28.38;26.46;101126.41;5072303;28;46463;-75
2022/08/11 00:55:55;;;;;;;;;12.00;10.00;;;;;28.34;25.99;101123.28;5071396;27;45970;-75
2022/08/11 00:58:36;;;;;;;;;7.25;7.25;;;;;28.32;26.17;101128.09;5066952;27;45719;-76
2022/08/11 01:01:12;;;;;;;;;11.00;10.00;;;;;28.28;26.48;101126.88;5071604;28;45790;-76
2022/08/11 01:04:09;;;;;;;;;9.00;9.00;;;;;28.27;25.67;101129.78;5083455;27;46571;-75
2022/08/11 01:06:37;;;;;;;;;9.75;9.75;;;;;28.24;26.09;101120.22;5082929;27;46216;-76
2022/08/11 01:09:32;;;;;;;;;8.25;8.25;;;;;28.19;26.47;101122.72;5074837;27;45874;-75
2022/08/11 01:12:54;;;;;;;;;11.75;9.75;;;;;28.18;26.20;101129.16;5072735;27;45739;-76
2022/08/11 01:15:32;;;;;;;;;9.00;8.50;;;;;28.16;25.87;101123.16;4984271;28;46680;-77
2022/08/11 01:18:28;;;;;;;;;10.75;9.50;;;;;28.13;26.84;101128.97;4973647;28;46770;-74
2022/08/11 01:21:18;;;;;;;;;9.00;9.00;;;;;28.09;26.35;101125.00;4983685;28;45874;-75
2022/08/11 01:24:28;;;;;;;;;9.75;9.00;;;;;28.06;26.14;101121.91;4973546;28;45804;-75
2022/08/11 01:27:12;;;;;;;;;8.75;8.25;;;;;28.00;26.87;101112.81;4950069;28;46555;-74
2022/08/11 01:30:14;;;;;;;;;10.00;10.00;;;;;27.96;26.85;101115.06;4952039;28;46278;-75
2022/08/11 01:33:03;;;;;;;;;8.00;8.00;;;;;27.92;27.03;101119.25;4951802;28;45803;-76
2022/08/11 01:35:52;;;;;;;;;10.00;9.25;;;;;27.87;26.96;101112.81;4950062;28;45627;-75
2022/08/11 01:38:45;;;;;;;;;9.50;9.00;;;;;27.80;26.68;101109.34;4935339;28;47839;-75
2022/08/11 01:44:48;;;;;;;;;11.00;10.00;;;;;27.76;27.20;101119.66;4951575;28;46068;-75
2022/08/11 01:47:50;;;;;;;;;11.00;11.00;;;;;27.72;27.02;101114.91;4989259;28;45666;-75
2022/08/11 01:50:45;;;;;;;;;11.00;11.00;;;;;27.68;26.94;101113.69;4990644;28;46959;-75
2022/08/11 01:53:26;;;;;;;;;9.00;9.00;;;;;27.65;27.41;101124.84;4991196;28;46236;-76
2022/08/11 01:55:59;;;;;;;;;9.00;9.00;;;;;27.62;27.17;101117.22;4990386;28;45793;-75
2022/08/11 01:58:37;;;;;;;;;10.75;10.25;;;;;27.60;27.31;101113.88;4990937;28;45923;-76
2022/08/11 02:01:15;;;;;;;;;9.25;9.25;;;;;27.55;27.27;101120.72;4990344;28;46155;-75
2022/08/11 02:03:51;;;;;;;;;9.75;9.75;;;;;27.52;26.90;101120.31;5019226;28;46502;-74
2022/08/11 02:07:10;;;;;;;;;11.50;10.00;;;;;27.49;27.27;101110.75;5056795;28;45595;-75
2022/08/11 02:13:15;;;;;;;;;10.00;9.50;;;;;27.44;27.90;101118.63;5023159;28;45778;-76
2022/08/11 02:15:49;;;;;;;;;8.00;8.00;;;;;27.39;27.67;101115.72;5029809;28;46324;-75
2022/08/11 02:23:38;;;;;;;;;9.25;9.25;;;;;27.39;27.60;101114.91;5027661;28;45729;-76
2022/08/11 02:24:27;;;;;;;;;11.50;11.00;;;;;27.30;27.64;101108.91;5030290;28;46137;-78
2022/08/11 02:27:21;;;;;;;;;10.00;10.00;;;;;27.29;27.82;101114.47;5010128;28;47126;-78
2022/08/11 02:30:06;;;;;;;;;9.75;9.00;;;;;27.26;28.17;101115.69;5025796;28;45638;-78
2022/08/11 02:35:41;;;;;;;;;10.00;9.25;;;;;27.18;27.65;101113.22;5024583;28;45838;-78
2022/08/11 02:38:20;;;;;;;;;7.75;7.75;;;;;27.18;27.60;101117.78;5013390;28;46350;-78
2022/08/11 02:44:27;;;;;;;;;10.50;10.00;;;;;27.11;27.43;101118.59;5073037;28;45576;-78
2022/08/11 02:47:17;;;;;;;;;10.25;9.25;;;;;27.07;27.95;101114.66;5064079;28;46164;-79
2022/08/11 02:49:55;;;;;;;;;11.00;10.25;;;;;27.01;28.16;101111.94;5071508;27;46096;-80
2022/08/11 02:52:30;;;;;;;;;12.50;11.00;;;;;26.98;28.06;101112.38;5069673;28;45750;-78
2022/08/11 02:55:18;;;;;;;;;11.00;10.50;;;;;26.97;28.07;101116.09;5072348;28;45899;-80
2022/08/11 02:58:09;;;;;;;;;9.75;9.25;;;;;26.92;28.56;101107.81;5072331;28;46615;-77
2022/08/11 03:00:50;;;;;;;;;9.75;8.25;;;;;26.88;28.43;101107.41;5066936;27;46686;-79
2022/08/11 03:03:29;;;;;;;;;9.50;9.50;;;;;26.85;28.28;101106.91;5070144;28;45674;-80
2022/08/11 03:06:46;;;;;;;;;9.50;9.50;;;;;26.81;28.30;101109.19;5067853;28;46701;-79
2022/08/11 03:09:54;;;;;;;;;9.50;9.50;;;;;26.74;28.67;101111.03;4968493;28;46973;-79
2022/08/11 03:18:54;;;;;;;;;10.25;10.00;;;;;26.57;28.77;101112.41;4952409;28;45942;-78
2022/08/11 03:21:33;;;;;;;;;9.25;9.00;;;;;26.48;28.89;101108.25;4954374;28;46136;-78
2022/08/11 03:24:30;;;;;;;;;13.00;10.50;;;;;26.42;28.87;101100.97;4953336;28;46236;-78
2022/08/11 03:27:09;;;;;;;;;10.00;9.75;;;;;26.39;28.87;101106.78;4956481;28;46080;-77
2022/08/11 03:30:14;;;;;;;;;10.50;9.75;;;;;26.33;29.04;101105.72;4936141;28;45915;-78
2022/08/11 03:36:19;;;;;;;;;10.50;10.50;;;;;26.21;29.24;101104.56;4963256;28;46065;-78
2022/08/11 03:38:56;;;;;;;;;9.00;9.00;;;;;26.18;28.91;101105.00;4902052;28;45732;-78
2022/08/11 03:41:43;;;;;;;;;9.75;9.00;;;;;26.13;29.07;101099.34;4913007;28;45989;-79
2022/08/11 03:44:34;;;;;;;;;10.00;9.00;;;;;26.11;28.76;101106.81;4935329;28;46824;-78
2022/08/11 03:47:24;;;;;;;;;9.50;9.50;;;;;26.05;29.06;101102.22;5018526;28;45748;-78
2022/08/11 03:50:05;;;;;;;;;10.00;9.50;;;;;26.01;29.06;101104.47;5058088;28;46150;-78
2022/08/11 03:53:06;;;;;;;;;8.25;8.00;;;;;25.98;29.10;101109.41;5073882;28;45620;-78
2022/08/11 03:56:08;;;;;;;;;9.75;9.25;;;;;25.93;29.28;101104.63;5070433;28;45711;-79
2022/08/11 03:58:52;;;;;;;;;12.00;9.25;;;;;25.88;29.18;101104.38;5073024;28;45743;-78
2022/08/11 04:01:17;;;;;;;;;10.00;9.00;;;;;25.85;29.26;101104.78;5062242;28;45741;-78
2022/08/11 04:03:53;;;;;;;;;10.50;10.00;;;;;25.82;29.38;101105.16;5077849;28;45650;-78
2022/08/11 04:06:30;;;;;;;;;9.50;9.50;;;;;25.79;29.32;101103.72;5072958;28;46398;-78
2022/08/11 04:09:15;;;;;;;;;9.50;8.25;;;;;25.75;29.69;101099.75;5075209;28;46158;-77
2022/08/11 04:12:34;;;;;;;;;9.00;9.00;;;;;25.71;29.79;101100.34;5077986;28;45643;-79
2022/08/11 04:16:03;;;;;;;;;11.00;10.00;;;;;25.64;29.82;101102.97;5072709;28;45852;-76
2022/08/11 04:18:59;;;;;;;;;10.75;10.50;;;;;25.63;29.95;101105.88;5075968;27;46754;-77
2022/08/11 04:21:34;;;;;;;;;11.50;10.00;;;;;25.58;29.77;101103.78;5076034;27;46335;-76
2022/08/11 04:24:18;;;;;;;;;9.75;9.00;;;;;25.56;29.90;101104.97;5075592;28;45656;-77
2022/08/11 04:27:02;;;;;;;;;9.75;9.50;;;;;25.53;29.59;101105.34;5057939;28;45997;-76
2022/08/11 04:29:57;;;;;;;;;10.00;10.00;;;;;25.49;29.89;101110.25;5073649;28;45890;-76
2022/08/11 04:32:56;;;;;;;;;8.00;7.75;;;;;25.45;29.87;101107.13;5072387;28;46389;-76
2022/08/11 04:35:42;;;;;;;;;11.50;11.25;;;;;25.40;29.88;101108.72;5071504;27;45792;-77
2022/08/11 04:38:39;;;;;;;;;9.75;9.00;;;;;25.34;30.12;101104.97;5088794;27;45767;-76
2022/08/11 04:43:19;;;;;;;;;10.25;10.00;;;;;25.31;30.16;101112.59;5048286;27;47000;-78
2022/08/11 04:44:54;;;;;;;;;9.50;9.50;;;;;25.25;30.25;101114.19;5071500;27;46165;-76
2022/08/11 05:03:06;;;;;;;;;11.25;11.00;;;;;25.02;30.30;101109.00;5059603;28;45660;-78
2022/08/11 05:06:05;;;;;;;;;12.50;10.75;;;;;24.97;30.60;101110.59;5071957;28;46030;-76
2022/08/11 05:09:09;;;;;;;;;12.00;10.50;;;;;24.93;30.85;101120.88;5071983;27;46603;-77
2022/08/11 05:12:01;;;;;;;;;9.25;9.25;;;;;24.89;30.43;101103.50;5084223;27;45814;-76
2022/08/11 05:37:22;;;;;;;;;12.25;12.00;;;;;24.81;31.17;101138.44;5062115;28;45728;-77
2022/08/11 05:57:01;;;;;;;;;10.00;9.50;;;;;24.82;31.19;101150.84;5075933;28;45557;-77
2022/08/11 05:59:28;;;;;;;;;9.75;9.75;;;;;24.82;31.61;101152.69;5075952;27;45877;-76
2022/08/11 06:02:00;;;;;;;;;9.50;9.50;;;;;24.81;31.15;101143.81;5075912;27;45621;-77
2022/08/11 06:04:27;;;;;;;;;10.00;10.00;;;;;24.86;31.65;101152.09;5075932;27;46177;-76
2022/08/11 06:07:05;;;;;;;;;9.50;9.50;;;;;24.89;31.43;101148.22;5076047;27;45572;-77
2022/08/11 06:09:30;;;;;;;;;11.25;11.00;;;;;24.91;31.37;101149.72;5076077;28;45545;-77
2022/08/11 06:12:00;;;;;;;;;11.00;11.00;;;;;24.90;31.70;101147.22;5075726;28;46969;-76
2022/08/11 06:14:27;;;;;;;;;10.50;9.00;;;;;24.93;30.94;101141.50;5075559;27;45948;-77
2022/08/11 06:16:58;;;;;;;;;10.75;10.00;;;;;24.97;31.40;101148.13;5073998;28;45715;-77
2022/08/11 06:19:32;;;;;;;;;10.00;10.00;;;;;24.93;30.72;101153.06;5075825;28;45756;-76
2022/08/11 06:22:00;;;;;;;;;11.50;10.50;;;;;24.98;31.08;101157.84;5075567;27;45742;-77
2022/08/11 06:24:28;;;;;;;;;10.25;9.75;;;;;24.97;31.55;101157.00;5074588;27;46380;-77
2022/08/11 06:26:54;;;;;;;;;11.25;11.00;;;;;25.00;31.07;101159.31;5075188;28;45698;-77
2022/08/11 06:29:23;;;;;;;;;9.25;9.25;;;;;25.01;31.25;101147.56;5075719;28;45811;-78
2022/08/11 06:32:00;;;;;;;;;10.50;10.25;;;;;25.01;30.95;101157.44;5075661;27;46672;-77
2022/08/11 06:34:51;;;;;;;;;9.75;9.50;;;;;25.05;30.85;101158.72;5075445;27;46336;-78
2022/08/11 06:37:41;;;;;;;;;10.25;10.25;;;;;25.02;30.79;101151.06;5076127;27;45730;-77
2022/08/11 06:40:12;;;;;;;;;9.25;9.00;;;;;25.05;30.89;101153.38;5075353;27;45599;-81
2022/08/11 06:42:43;;;;;;;;;10.50;10.25;;;;;25.13;31.17;101157.78;5075065;28;45574;-80
2022/08/11 06:45:21;;;;;;;;;11.50;10.25;;;;;25.14;30.72;101146.88;5066236;28;46627;-80
2022/08/11 06:47:47;;;;;;;;;10.25;10.00;;;;;25.16;30.78;101150.19;5074945;27;45638;-82
2022/08/11 06:53:09;;;;;;;;;11.00;10.75;;;;;25.24;30.39;101147.38;5073752;28;46038;-78
2022/08/11 07:02:14;;;;;;;;;9.25;9.00;;;;;25.39;30.56;101152.69;5074771;28;45589;-78
2022/08/11 07:05:01;;;;;;;;;9.75;9.00;;;;;25.41;30.39;101154.16;5074156;27;45621;-76
2022/08/11 07:16:29;;;;;;;;;8.75;8.50;;;;;25.62;29.51;101163.25;5073744;28;45666;-83
2022/08/11 07:30:16;;;;;;;;;9.00;9.00;;;;;25.84;29.40;101160.34;5074882;28;46126;-77
2022/08/11 07:32:53;;;;;;;;;9.00;9.00;;;;;25.88;29.26;101158.09;5089298;27;45670;-76
2022/08/11 07:35:32;;;;;;;;;8.25;8.00;;;;;25.92;29.08;101153.97;5074112;27;45808;-77
2022/08/11 07:38:05;;;;;;;;;8.00;8.00;;;;;25.98;29.50;101153.19;5073943;27;46629;-75
2022/08/11 07:40:32;;;;;;;;;10.75;9.75;;;;;26.01;29.38;101146.63;5089231;27;45716;-76
2022/08/11 07:43:00;;;;;;;;;11.00;10.25;;;;;26.06;28.98;101154.91;5074638;27;45682;-87
2022/08/11 07:53:45;;;;;;;;;10.75;10.00;;;;;26.22;29.14;101147.41;5075845;28;45742;-79
2022/08/11 07:56:14;;;;;;;;;9.00;9.00;;;;;26.25;28.53;101151.53;5075920;27;45704;-86
2022/08/11 08:19:13;;;;;;;;;10.00;9.25;;;;;26.48;29.44;101132.44;5073308;28;45711;-77
2022/08/11 08:21:40;;;;;;;;;8.00;8.00;;;;;26.53;28.97;101140.72;5073639;27;46624;-76
2022/08/11 08:24:06;;;;;;;;;9.00;9.00;;;;;26.58;30.23;101149.03;5073975;27;46284;-77
2022/08/11 08:32:03;;;;;;;;;9.00;8.75;;;;;26.69;29.87;101146.59;5078716;28;46115;-78
2022/08/11 08:34:29;;;;;;;;;10.00;9.00;;;;;26.73;29.93;101145.16;5077954;27;46536;-78
2022/08/11 08:36:55;;;;;;;;;9.00;8.00;;;;;26.76;30.36;101141.25;5080049;27;45514;-77
2022/08/11 08:39:21;;;;;;;;;6.75;6.75;;;;;26.78;30.23;101135.63;5078686;28;45525;-78
2022/08/11 08:41:53;;;;;;;;;8.75;8.00;;;;;26.80;30.24;101134.41;5079792;27;45617;-78
2022/08/11 08:44:21;;;;;;;;;9.00;8.25;;;;;26.86;30.02;101141.69;5079111;27;46433;-78
2022/08/11 08:46:53;;;;;;;;;8.75;8.00;;;;;26.92;29.99;101138.22;5079370;27;45601;-78
2022/08/11 08:49:26;;;;;;;;;9.25;8.50;;;;;26.97;29.83;101143.00;5080095;28;45704;-76
2022/08/11 08:51:56;;;;;;;;;5.50;5.50;;;;;26.99;29.33;101141.75;5083197;27;45619;-78
2022/08/11 08:54:34;;;;;;;;;7.00;7.00;;;;;27.03;29.41;101145.69;5083515;27;45717;-80
2022/08/11 08:57:04;;;;;;;;;8.25;7.50;;;;;27.07;30.13;101141.56;5083437;27;45782;-78
2022/08/11 08:59:31;;;;;;;;;6.75;6.50;;;;;27.11;29.40;101150.88;5083103;27;45533;-79
2022/08/11 09:02:00;;;;;;;;;8.00;8.00;;;;;27.13;28.67;101142.63;5082581;27;46461;-79
2022/08/11 09:04:27;;;;;;;;;9.00;8.00;;;;;27.19;29.51;101151.72;5081366;27;46307;-78
2022/08/11 09:06:58;;;;;;;;;7.00;7.00;;;;;27.23;29.27;101158.34;5084731;27;45619;-80
2022/08/11 09:09:25;;;;;;;;;9.00;8.50;;;;;27.24;29.52;101146.56;5083167;27;45458;-77
2022/08/11 09:11:52;;;;;;;;;8.00;7.75;;;;;27.28;29.46;101137.03;5080054;27;45566;-77
2022/08/11 09:17:22;;;;;;;;;7.75;7.75;;;;;27.45;29.14;101141.81;5082270;28;45686;-78
2022/08/11 09:19:57;;;;;;;;;6.00;6.00;;;;;27.46;29.00;101132.72;5080683;28;45656;-77
2022/08/11 09:27:55;;;;;;;;;8.75;7.25;;;;;27.66;28.93;101132.75;5080466;28;45634;-78
2022/08/11 09:30:24;;;;;;;;;8.00;7.75;;;;;27.73;28.83;101138.97;5080400;28;45908;-77
2022/08/11 09:32:55;;;;;;;;;7.50;7.25;;;;;27.76;28.43;101127.75;5079444;27;45653;-78
2022/08/11 09:35:20;;;;;;;;;6.25;5.25;;;;;27.84;28.75;101137.50;5080727;27;45800;-77
2022/08/11 09:40:44;;;;;;;;;8.00;7.75;;;;;27.95;28.17;101123.38;4995436;28;45608;-77
2022/08/11 09:45:57;;;;;;;;;6.25;6.00;;;;;28.10;27.35;101117.75;4994947;28;45774;-77
2022/08/11 09:48:25;;;;;;;;;6.50;6.50;;;;;28.18;27.12;101126.47;4994732;28;45561;-77
2022/08/11 09:50:54;;;;;;;;;7.00;6.00;;;;;28.22;27.43;101127.72;4995523;28;45557;-79
2022/08/11 09:53:21;;;;;;;;;7.50;7.50;;;;;28.31;27.00;101131.81;4995539;28;45759;-79
2022/08/11 09:55:47;;;;;;;;;8.00;7.00;;;;;28.36;26.38;101123.09;4995831;28;46101;-78
2022/08/11 09:58:15;;;;;;;;;8.00;7.00;;;;;28.41;26.78;101120.59;4996159;28;45825;-79
2022/08/11 10:00:42;;;;;;;;;5.00;5.00;;;;;28.50;26.62;101123.88;4996292;28;45704;-79
2022/08/11 10:03:29;;;;;;;;;6.00;6.00;;;;;28.56;26.50;101123.00;4995163;28;45825;-78
2022/08/11 10:08:46;;;;;;;;;7.00;7.00;;;;;28.65;26.05;101116.34;4995321;28;45694;-77
2022/08/11 10:11:17;;;;;;;;;8.00;7.00;;;;;28.67;25.57;101119.63;4994385;28;45711;-76
2022/08/11 10:16:38;;;;;;;;;7.50;7.25;;;;;28.82;25.56;101114.00;5015408;28;45712;-76
2022/08/11 10:19:05;;;;;;;;;8.00;7.75;;;;;28.86;25.25;101115.22;5075345;27;45721;-77
2022/08/11 10:21:42;;;;;;;;;6.75;6.75;;;;;28.86;25.54;101091.78;5075365;27;45616;-77
2022/08/11 10:26:59;;;;;;;;;8.00;7.25;;;;;28.98;25.45;101097.31;5074851;28;46132;-76
2022/08/11 10:35:01;;;;;;;;;7.75;7.75;;;;;29.07;24.89;101080.63;5074981;28;46114;-78
2022/08/11 10:37:33;;;;;;;;;9.00;9.00;;;;;29.19;25.02;101088.84;5075091;27;47183;-77
2022/08/11 10:40:00;;;;;;;;;7.75;7.75;;;;;29.16;25.06;101079.31;5075293;28;45484;-81
2022/08/11 10:49:00;;;;;;;;;7.00;7.00;;;;;29.43;25.55;101074.53;5071242;28;45804;-79
2022/08/11 10:59:44;;;;;;;;;8.00;8.00;;;;;29.60;24.24;101059.44;5074692;28;45833;-78
2022/08/11 11:02:13;;;;;;;;;7.75;7.75;;;;;29.67;24.60;101066.66;5074889;27;45639;-75
2022/08/11 11:04:56;;;;;;;;;7.00;7.00;;;;;29.67;24.31;101051.25;5075006;27;45726;-76
2022/08/11 11:07:29;;;;;;;;;8.25;7.50;;;;;29.77;24.08;101059.69;5074902;28;46470;-76
2022/08/11 11:10:03;;;;;;;;;7.25;7.25;;;;;29.78;24.09;101053.22;5074565;27;46005;-77
2022/08/11 11:18:48;;;;;;;;;10.00;9.00;;;;;29.94;24.34;101052.66;5074251;28;46165;-77
2022/08/11 11:21:19;;;;;;;;;8.00;7.50;;;;;30.00;23.99;101040.94;5075014;28;45845;-77
2022/08/11 11:23:50;;;;;;;;;8.00;8.00;;;;;30.07;23.95;101040.06;5074760;28;45718;-77
2022/08/11 11:26:37;;;;;;;;;9.50;9.50;;;;;30.10;23.83;101032.31;5074525;27;45760;-77
2022/08/11 11:29:29;;;;;;;;;8.50;7.75;;;;;30.14;23.77;101035.38;5074516;28;46905;-77
2022/08/11 11:35:28;;;;;;;;;9.25;8.75;;;;;30.24;23.37;101030.25;5074193;28;45644;-78
2022/08/11 11:37:55;;;;;;;;;8.00;7.50;;;;;30.29;23.09;101027.69;5074442;27;45614;-77
2022/08/11 11:40:22;;;;;;;;;8.50;8.25;;;;;30.26;22.06;101028.97;5074415;27;45671;-78
2022/08/11 11:42:50;;;;;;;;;9.25;9.25;;;;;30.31;22.02;101026.41;5074399;27;45870;-77
2022/08/11 11:52:22;;;;;;;;;6.25;6.25;;;;;30.34;21.90;101031.34;5074511;28;45673;-78
2022/08/11 11:54:52;;;;;;;;;9.25;8.50;;;;;30.33;21.96;101018.09;5074381;27;45988;-78
2022/08/11 12:06:13;;;;;;;;;8.00;8.00;;;;;30.42;21.55;101005.88;5073885;28;45880;-75
2022/08/11 12:08:39;;;;;;;;;10.00;9.00;;;;;30.45;22.21;101014.34;5073986;27;45631;-77
2022/08/11 12:13:57;;;;;;;;;8.50;8.00;;;;;30.53;21.80;101007.84;5073686;28;45495;-76
2022/08/11 12:16:23;;;;;;;;;10.00;9.00;;;;;30.54;21.69;100995.13;5073945;27;45756;-77
2022/08/11 12:18:53;;;;;;;;;9.25;9.00;;;;;30.58;21.66;101004.44;5073999;27;45620;-77
2022/08/11 12:21:19;;;;;;;;;9.00;8.75;;;;;30.59;21.88;101006.09;5074257;28;45640;-76
2022/08/11 12:29:18;;;;;;;;;6.50;6.50;;;;;30.78;22.08;100988.72;5079034;28;45576;-75
2022/08/11 12:31:45;;;;;;;;;7.00;7.00;;;;;30.80;21.89;100983.91;5078987;27;45794;-76
2022/08/11 12:34:13;;;;;;;;;7.00;7.00;;;;;30.89;21.97;100990.63;5078897;28;46727;-76
2022/08/11 12:36:42;;;;;;;;;10.75;10.50;;;;;30.95;21.68;100983.44;5076323;28;48109;-76
2022/08/11 12:39:12;;;;;;;;;7.50;7.00;;;;;30.98;21.31;100983.00;5077570;27;45517;-77
2022/08/11 12:47:15;;;;;;;;;9.50;9.50;;;;;31.08;21.14;100977.84;5077079;28;45835;-76
2022/08/11 12:52:34;;;;;;;;;11.00;10.50;;;;;31.11;21.17;100964.66;5077481;28;45569;-76
2022/08/11 12:55:09;;;;;;;;;9.00;9.00;;;;;31.17;21.44;100973.72;5092597;27;47597;-76
2022/08/11 13:05:58;;;;;;;;;8.50;8.25;;;;;31.23;21.06;100965.50;5076718;28;46134;-76
2022/08/11 13:08:26;;;;;;;;;8.75;8.75;;;;;31.24;20.51;100963.59;5076899;27;45878;-76
2022/08/11 13:13:41;;;;;;;;;9.00;8.00;;;;;31.30;20.67;100959.13;5076687;28;45768;-75
2022/08/11 13:19:30;;;;;;;;;7.50;7.50;;;;;31.40;20.75;100952.06;5076403;28;45958;-76
2022/08/11 13:21:56;;;;;;;;;8.00;8.00;;;;;31.42;20.45;100955.31;5076535;27;45533;-76
2022/08/11 13:24:22;;;;;;;;;6.75;6.75;;;;;31.45;20.88;100957.56;5076815;27;45518;-78
2022/08/11 13:26:49;;;;;;;;;8.00;8.00;;;;;31.50;21.22;100956.84;5076637;27;45677;-76
2022/08/11 13:29:18;;;;;;;;;7.50;7.50;;;;;31.54;21.36;100949.91;5076122;27;45961;-78
2022/08/11 13:35:05;;;;;;;;;8.00;7.75;;;;;31.62;21.10;100942.28;5075725;28;45813;-77
2022/08/11 13:37:33;;;;;;;;;7.75;7.75;;;;;31.66;21.31;100938.00;5076059;27;46474;-78
2022/08/11 13:40:01;;;;;;;;;8.00;8.00;;;;;31.71;21.21;100944.59;5076043;27;45732;-78
2022/08/11 13:42:27;;;;;;;;;8.75;8.75;;;;;31.71;20.93;100931.88;5091950;27;45685;-77
2022/08/11 13:44:55;;;;;;;;;10.25;9.75;;;;;31.77;20.56;100943.63;5076521;27;45596;-78
2022/08/11 13:53:29;;;;;;;;;5.50;5.50;;;;;31.84;20.69;100938.91;5075819;28;45443;-79
2022/08/11 13:55:58;;;;;;;;;8.75;8.50;;;;;31.87;20.97;100938.41;5074812;28;45631;-78
2022/08/11 13:58:25;;;;;;;;;8.50;8.00;;;;;31.85;20.75;100930.50;5075676;27;46782;-78
2022/08/11 14:00:51;;;;;;;;;10.25;9.75;;;;;31.89;20.77;100949.84;5075708;27;46343;-79
2022/08/11 14:06:43;;;;;;;;;9.00;9.00;;;;;31.95;20.85;100943.47;5075919;28;45562;-76
2022/08/11 14:09:11;;;;;;;;;8.75;8.75;;;;;31.97;20.84;100933.19;5057414;28;47406;-77
2022/08/11 14:14:31;;;;;;;;;7.75;7.00;;;;;32.00;20.16;100925.41;5075649;28;45562;-77
2022/08/11 14:17:03;;;;;;;;;8.75;8.75;;;;;31.98;20.39;100921.28;5108495;27;45939;-79
2022/08/11 14:19:34;;;;;;;;;7.75;7.50;;;;;32.02;20.07;100917.84;5075704;27;45645;-80
2022/08/11 14:22:08;;;;;;;;;10.25;9.00;;;;;32.06;20.58;100916.31;5075675;27;46309;-79
2022/08/11 14:24:38;;;;;;;;;9.00;9.00;;;;;32.12;20.21;100913.72;5075649;27;45622;-79
2022/08/11 14:27:10;;;;;;;;;10.50;10.00;;;;;32.15;19.87;100907.78;5075789;27;45500;-78
2022/08/11 14:29:39;;;;;;;;;9.25;8.75;;;;;32.16;20.63;100899.44;5075311;28;46624;-79
2022/08/11 14:32:08;;;;;;;;;11.00;10.00;;;;;32.21;20.21;100901.41;5075402;28;45778;-79
2022/08/11 14:34:37;;;;;;;;;9.50;9.00;;;;;32.19;20.36;100890.78;5073786;28;45691;-79
2022/08/11 14:37:09;;;;;;;;;9.50;9.50;;;;;32.24;20.03;100896.31;5075840;28;45522;-80
2022/08/11 14:39:42;;;;;;;;;9.50;8.75;;;;;32.28;20.43;100891.22;5075540;27;45787;-80
2022/08/11 14:47:50;;;;;;;;;8.00;8.00;;;;;32.34;20.05;100888.34;5032415;28;45694;-79
2022/08/11 14:50:22;;;;;;;;;9.25;9.00;;;;;32.30;20.05;100867.38;5032834;28;45816;-79
2022/08/11 14:53:09;;;;;;;;;8.00;8.00;;;;;32.43;19.71;100883.34;5032409;28;46969;-79
2022/08/11 14:58:24;;;;;;;;;8.75;8.75;;;;;32.52;20.27;100878.31;5032451;28;45991;-80
2022/08/11 15:01:01;;;;;;;;;8.25;8.25;;;;;32.57;19.46;100871.06;5032702;28;46361;-80
2022/08/11 15:03:30;;;;;;;;;9.25;9.00;;;;;32.65;19.07;100872.59;5033137;28;45963;-80
2022/08/11 15:06:00;;;;;;;;;8.75;8.75;;;;;32.67;19.25;100857.69;5032765;28;45787;-81
2022/08/11 15:14:10;;;;;;;;;8.75;8.50;;;;;33.54;19.07;100848.81;5032093;28;45734;-80
2022/08/11 15:19:23;;;;;;;;;10.50;9.00;;;;;35.32;17.77;100860.94;5032260;28;45530;-80
2022/08/11 15:24:35;;;;;;;;;8.75;8.25;;;;;37.59;16.59;100853.00;5046994;28;45578;-80
2022/08/11 15:39:15;;;;;;;;;8.25;8.25;;;;;42.95;10.95;100859.81;5074211;28;45689;-82
2022/08/11 15:47:24;;;;;;;;;11.25;10.25;;;;;44.72;10.74;100849.47;5072008;28;45898;-80
2022/08/11 15:49:54;;;;;;;;;8.75;8.75;;;;;45.18;10.68;100839.50;5072650;28;45795;-78
2022/08/11 15:52:28;;;;;;;;;9.00;8.75;;;;;45.63;10.63;100841.59;5072428;28;45666;-78
2022/08/11 15:54:58;;;;;;;;;9.00;9.00;;;;;46.09;10.98;100840.56;5072669;28;45784;-76
2022/08/11 16:05:42;;;;;;;;;9.00;8.50;;;;;47.48;9.86;100841.25;5072140;28;45915;-78
2022/08/11 16:08:09;;;;;;;;;8.50;7.75;;;;;47.46;9.98;100841.59;5071999;28;45866;-80
2022/08/11 16:10:36;;;;;;;;;8.50;8.50;;;;;47.25;9.36;100829.00;5072311;28;45769;-78
2022/08/11 16:18:39;;;;;;;;;8.75;8.50;;;;;45.40;9.72;100828.06;5072175;28;45562;-78
2022/08/11 16:21:07;;;;;;;;;7.25;7.25;;;;;44.73;10.05;100820.66;5074301;27;45588;-78
2022/08/11 16:23:34;;;;;;;;;9.75;9.50;;;;;44.24;10.02;100822.09;5073939;27;45453;-79
2022/08/11 16:26:01;;;;;;;;;8.50;8.50;;;;;43.71;10.28;100830.78;5073905;28;46775;-78
2022/08/11 16:28:30;;;;;;;;;8.25;8.25;;;;;43.30;10.92;100833.13;5074262;27;45897;-78
2022/08/11 16:30:56;;;;;;;;;9.00;7.50;;;;;42.97;10.87;100825.25;5073941;28;45671;-78
2022/08/11 16:33:24;;;;;;;;;9.00;8.00;;;;;42.53;10.85;100819.88;5072297;28;45656;-77
2022/08/11 16:38:38;;;;;;;;;9.00;8.00;;;;;41.67;11.32;100820.09;5073665;28;45974;-78
2022/08/11 16:41:10;;;;;;;;;7.75;7.75;;;;;41.47;11.16;100820.53;5073516;27;45670;-77
2022/08/11 16:49:06;;;;;;;;;8.00;8.00;;;;;41.29;11.32;100810.50;5073410;27;45958;-78
2022/08/11 16:51:31;;;;;;;;;10.00;10.00;;;;;41.25;12.23;100806.72;5073503;27;45695;-79
2022/08/11 16:53:57;;;;;;;;;9.25;8.25;;;;;41.31;11.58;100803.53;5073707;27;45564;-77
2022/08/11 16:56:40;;;;;;;;;9.50;8.50;;;;;41.40;11.78;100804.44;5073713;27;46674;-78
2022/08/11 16:59:15;;;;;;;;;9.00;9.00;;;;;41.39;12.12;100797.31;5073471;27;45580;-78
2022/08/11 17:01:51;;;;;;;;;10.25;10.25;;;;;41.28;11.59;100800.59;5073487;27;45659;-79
2022/08/11 17:13:09;;;;;;;;;9.50;9.50;;;;;40.73;11.69;100795.13;5074551;28;45715;-79
2022/08/11 17:24:42;;;;;;;;;8.25;8.25;;;;;40.55;12.18;100796.81;5074428;28;45765;-79
2022/08/11 17:27:08;;;;;;;;;9.25;9.00;;;;;40.51;12.45;100798.56;5074317;28;45643;-77
2022/08/11 17:29:36;;;;;;;;;10.00;10.00;;;;;40.46;12.96;100801.41;5074533;28;46818;-76
2022/08/11 17:38:19;;;;;;;;;9.75;9.50;;;;;40.32;12.86;100799.75;5074617;28;45875;-78
2022/08/11 17:49:10;;;;;;;;;10.00;9.75;;;;;40.03;13.00;100802.69;5075974;28;45599;-80
2022/08/11 17:59:57;;;;;;;;;7.50;7.50;;;;;39.33;13.00;100810.84;5076318;28;45576;-78
2022/08/11 18:05:17;;;;;;;;;11.75;11.75;;;;;38.99;13.18;100814.56;5075722;28;45746;-79
